Time;durP1;ratioP1;P1;durP2;ratioP2;P2;SDS_P1;SDS_P2;PMS_P1;PMS_P2;Temp;Humidity;BMP_temperature;BMP_pressure;BME280_temperature;BME280_humidity;BME280_pressure;Samples;Min_cycle;Max_cycle;Signal;HPM_P1;HPM_P2
2021/01/27 00:00:25;;;;;;;25.90;19.50;;;1.40;99.90;;;;;;5008068;28;20483;-48
2021/01/27 00:02:52;;;;;;;25.83;17.83;;;1.30;99.90;;;;;;5007047;28;21011;-48
2021/01/27 00:05:26;;;;;;;23.70;16.60;;;1.30;99.90;;;;;;5007325;28;20540;-48
2021/01/27 00:07:53;;;;;;;23.23;16.10;;;1.30;99.90;;;;;;5007012;28;20965;-48
2021/01/27 00:10:21;;;;;;;22.50;15.63;;;1.30;99.90;;;;;;5007053;28;20488;-48
2021/01/27 00:12:50;;;;;;;18.97;14.67;;;1.20;99.90;;;;;;5007438;28;20484;-48
2021/01/27 00:15:21;;;;;;;18.80;13.60;;;1.20;99.90;;;;;;5006816;28;20868;-48
2021/01/27 00:17:49;;;;;;;21.07;14.43;;;1.10;99.90;;;;;;4994161;28;20480;-48
2021/01/27 00:20:19;;;;;;;20.17;14.70;;;1.10;99.90;;;;;;5009114;28;20512;-48
2021/01/27 00:22:48;;;;;;;19.73;14.80;;;1.00;99.90;;;;;;5009205;28;20468;-48
2021/01/27 00:25:18;;;;;;;19.97;15.43;;;1.10;99.90;;;;;;5010252;28;20500;-48
2021/01/27 00:27:48;;;;;;;21.23;14.47;;;1.00;99.90;;;;;;5009796;28;20532;-48
2021/01/27 00:30:20;;;;;;;22.60;14.20;;;1.00;99.90;;;;;;5010995;28;20490;-48
2021/01/27 00:32:49;;;;;;;19.80;14.10;;;1.00;99.90;;;;;;5010364;28;20811;-48
2021/01/27 00:35:18;;;;;;;15.83;12.73;;;1.00;99.90;;;;;;5010548;28;20499;-48
2021/01/27 00:37:46;;;;;;;18.73;13.13;;;0.90;99.90;;;;;;5010715;28;20468;-48
2021/01/27 00:40:15;;;;;;;25.77;17.07;;;1.10;99.90;;;;;;5010336;28;20472;-47
2021/01/27 00:42:42;;;;;;;22.73;16.20;;;1.30;99.90;;;;;;5010105;28;20472;-48
2021/01/27 00:45:11;;;;;;;22.57;16.47;;;1.50;99.90;;;;;;5009940;28;20468;-48
2021/01/27 00:47:39;;;;;;;27.20;17.90;;;1.30;99.90;;;;;;5005936;28;20500;-48
2021/01/27 00:50:09;;;;;;;24.73;17.57;;;1.50;99.90;;;;;;5007444;28;20479;-48
2021/01/27 00:52:37;;;;;;;20.67;15.40;;;1.20;99.90;;;;;;5024990;28;20883;-48
2021/01/27 00:55:12;;;;;;;25.87;18.57;;;1.20;99.90;;;;;;5009815;28;20472;-48
2021/01/27 00:57:39;;;;;;;24.93;17.10;;;1.30;99.90;;;;;;5010230;28;20605;-48
2021/01/27 01:00:14;;;;;;;27.03;19.63;;;1.50;99.90;;;;;;5025462;28;20531;-48
2021/01/27 01:02:42;;;;;;;32.00;19.83;;;1.40;99.90;;;;;;5024841;28;20529;-48
2021/01/27 01:05:14;;;;;;;29.33;18.80;;;1.50;99.90;;;;;;5009294;28;20471;-48
2021/01/27 01:07:46;;;;;;;29.90;20.73;;;1.60;99.90;;;;;;5009814;28;21013;-48
2021/01/27 01:10:19;;;;;;;30.43;19.53;;;1.80;99.90;;;;;;5010327;28;20518;-48
2021/01/27 01:12:47;;;;;;;28.03;19.53;;;1.80;99.90;;;;;;5009650;28;20548;-48
2021/01/27 01:15:16;;;;;;;39.63;24.27;;;1.70;99.90;;;;;;5007832;28;21014;-48
2021/01/27 01:17:44;;;;;;;39.03;24.17;;;1.90;99.90;;;;;;5005767;28;20511;-48
2021/01/27 01:20:14;;;;;;;39.37;24.57;;;1.70;99.90;;;;;;5009512;28;21174;-48
2021/01/27 01:22:44;;;;;;;34.50;21.00;;;1.90;99.90;;;;;;5009376;28;20461;-48
2021/01/27 01:25:14;;;;;;;34.50;23.60;;;1.90;99.90;;;;;;5009238;28;20504;-48
2021/01/27 01:27:43;;;;;;;28.57;21.97;;;1.80;99.90;;;;;;5009785;28;20522;-48
2021/01/27 01:30:15;;;;;;;35.00;22.87;;;1.70;99.90;;;;;;5009226;28;20464;-48
2021/01/27 01:32:44;;;;;;;36.10;22.57;;;1.80;99.90;;;;;;5009612;28;20468;-48
2021/01/27 01:35:15;;;;;;;31.93;20.63;;;1.50;99.90;;;;;;5009078;28;20540;-48
2021/01/27 01:37:43;;;;;;;36.93;23.60;;;1.40;99.90;;;;;;5009335;28;20568;-48
2021/01/27 01:40:16;;;;;;;35.53;22.87;;;1.40;99.90;;;;;;5009356;28;20468;-48
2021/01/27 01:42:43;;;;;;;36.43;23.40;;;1.50;99.90;;;;;;5003661;28;20531;-48
2021/01/27 01:45:30;;;;;;;37.17;23.10;;;1.40;99.90;;;;;;5008806;28;20531;-48
2021/01/27 01:48:03;;;;;;;37.80;24.80;;;1.50;99.90;;;;;;5004798;28;20551;-48
2021/01/27 01:50:31;;;;;;;37.60;25.60;;;1.60;99.90;;;;;;5008752;28;20566;-48
2021/01/27 01:52:59;;;;;;;38.67;23.50;;;1.50;99.90;;;;;;5009006;28;20815;-48
2021/01/27 01:55:27;;;;;;;39.20;23.60;;;1.40;99.90;;;;;;5008275;28;20500;-48
2021/01/27 01:57:56;;;;;;;39.57;26.00;;;1.70;99.90;;;;;;5009115;28;20534;-48
2021/01/27 02:00:27;;;;;;;36.83;23.47;;;1.70;99.90;;;;;;5008790;28;20930;-48
2021/01/27 02:02:55;;;;;;;38.80;23.83;;;1.60;99.90;;;;;;5008747;28;20888;-48
2021/01/27 02:05:27;;;;;;;40.97;24.40;;;1.50;99.90;;;;;;5008242;28;20552;-48
2021/01/27 02:07:57;;;;;;;41.73;23.77;;;1.40;99.90;;;;;;5008408;28;20506;-48
2021/01/27 02:10:24;;;;;;;38.63;25.00;;;1.40;99.90;;;;;;5009040;28;20546;-48
2021/01/27 02:13:26;;;;;;;34.63;22.57;;;1.50;99.90;;;;;;5008566;28;20479;-48
2021/01/27 02:16:09;;;;;;;31.23;22.57;;;1.60;99.90;;;;;;5004452;28;20541;-48
2021/01/27 02:19:04;;;;;;;38.87;24.67;;;1.60;99.90;;;;;;5001208;28;20924;-48
2021/01/27 02:22:40;;;;;;;33.60;22.40;;;1.70;99.90;;;;;;5008170;28;20507;-48
2021/01/27 02:25:52;;;;;;;40.93;24.83;;;1.60;99.90;;;;;;4976831;28;20553;-48
2021/01/27 02:29:02;;;;;;;36.23;24.17;;;1.60;99.90;;;;;;5003908;28;20515;-47
2021/01/27 02:31:39;;;;;;;33.30;22.77;;;1.40;99.90;;;;;;5008070;28;20995;-48
2021/01/27 02:34:57;;;;;;;33.47;22.30;;;1.40;99.90;;;;;;5007950;28;20806;-48
2021/01/27 02:37:29;;;;;;;33.67;22.67;;;1.40;99.90;;;;;;5008067;28;20472;-48
2021/01/27 02:40:03;;;;;;;32.07;22.93;;;1.40;99.90;;;;;;5008254;28;20556;-48
2021/01/27 02:42:37;;;;;;;33.77;23.00;;;1.40;99.90;;;;;;5006655;28;20524;-48
2021/01/27 02:45:12;;;;;;;30.63;21.73;;;1.40;99.90;;;;;;5007598;28;20932;-48
2021/01/27 02:47:49;;;;;;;34.33;23.27;;;1.50;99.90;;;;;;5006614;28;20468;-48
2021/01/27 02:50:24;;;;;;;32.27;24.30;;;1.40;99.90;;;;;;5008555;28;20835;-48
2021/01/27 02:53:00;;;;;;;34.80;22.70;;;1.50;99.90;;;;;;5007934;28;20475;-48
2021/01/27 02:55:33;;;;;;;32.77;21.77;;;1.50;99.90;;;;;;5007536;28;20523;-48
2021/01/27 02:58:06;;;;;;;32.60;21.97;;;1.50;99.90;;;;;;5007960;28;20570;-49
2021/01/27 03:00:37;;;;;;;36.13;23.70;;;1.50;99.90;;;;;;5008084;28;20480;-48
2021/01/27 03:03:11;;;;;;;39.00;23.00;;;1.50;99.90;;;;;;5007887;28;20530;-48
2021/01/27 03:05:43;;;;;;;31.13;21.70;;;1.50;99.90;;;;;;5007866;28;20838;-48
2021/01/27 03:08:20;;;;;;;35.77;24.43;;;1.70;99.90;;;;;;5007467;28;20944;-48
2021/01/27 03:10:58;;;;;;;37.07;26.53;;;1.60;99.90;;;;;;5008099;28;20495;-48
2021/01/27 03:13:25;;;;;;;36.60;25.57;;;1.50;99.90;;;;;;5012312;28;20487;-48
2021/01/27 03:15:57;;;;;;;40.87;27.07;;;1.50;99.90;;;;;;5003893;28;20478;-48
2021/01/27 03:18:30;;;;;;;37.00;26.87;;;1.50;99.90;;;;;;5017454;28;20484;-48
2021/01/27 03:21:07;;;;;;;40.23;27.27;;;1.60;99.90;;;;;;5009160;28;21065;-48
2021/01/27 03:23:40;;;;;;;39.57;27.50;;;1.60;99.90;;;;;;5007834;28;20476;-48
2021/01/27 03:26:17;;;;;;;43.33;29.47;;;1.80;99.90;;;;;;4992131;28;20475;-48
2021/01/27 03:28:52;;;;;;;43.67;28.53;;;1.70;99.90;;;;;;4988383;28;20522;-48
2021/01/27 03:31:20;;;;;;;49.23;32.87;;;1.80;99.90;;;;;;4990950;28;20895;-48
2021/01/27 03:33:54;;;;;;;46.07;32.27;;;1.80;99.90;;;;;;5007821;28;20542;-49
2021/01/27 03:36:22;;;;;;;44.87;30.37;;;1.80;99.90;;;;;;4999793;28;20543;-48
2021/01/27 03:38:53;;;;;;;44.80;30.67;;;1.70;99.90;;;;;;5006649;28;20500;-48
2021/01/27 03:41:29;;;;;;;42.33;29.07;;;1.60;99.90;;;;;;5017200;28;20840;-48
2021/01/27 03:44:06;;;;;;;40.37;27.47;;;1.60;99.90;;;;;;5007633;28;20488;-48
2021/01/27 03:46:43;;;;;;;41.80;28.90;;;1.60;99.90;;;;;;5008370;28;20472;-48
2021/01/27 03:49:18;;;;;;;42.93;28.73;;;1.70;99.90;;;;;;5007536;28;20833;-48
2021/01/27 03:51:54;;;;;;;41.30;29.83;;;1.70;99.90;;;;;;5007218;28;20558;-48
2021/01/27 03:54:24;;;;;;;41.27;28.13;;;1.70;99.90;;;;;;4995450;28;20901;-48
2021/01/27 03:57:02;;;;;;;43.03;30.00;;;1.70;99.90;;;;;;4991691;28;20516;-48
2021/01/27 03:59:30;;;;;;;41.13;30.07;;;1.80;99.90;;;;;;4996755;28;21067;-48
2021/01/27 04:01:59;;;;;;;44.13;31.60;;;1.80;99.90;;;;;;5010828;28;20559;-48
2021/01/27 04:04:28;;;;;;;49.93;33.37;;;1.80;99.90;;;;;;5006394;28;20480;-49
2021/01/27 04:06:56;;;;;;;50.03;34.60;;;1.80;99.90;;;;;;5009950;28;20527;-48
2021/01/27 04:09:23;;;;;;;48.27;33.93;;;2.00;99.90;;;;;;5025697;28;20473;-48
2021/01/27 04:11:50;;;;;;;58.97;37.37;;;1.90;99.90;;;;;;5011720;28;20512;-48
2021/01/27 04:14:18;;;;;;;56.33;36.33;;;2.00;99.90;;;;;;5019128;28;20529;-48
2021/01/27 04:16:45;;;;;;;56.43;36.17;;;1.90;99.90;;;;;;5020595;28;20975;-48
2021/01/27 04:19:13;;;;;;;59.03;37.00;;;1.90;99.90;;;;;;5010730;28;20550;-48
2021/01/27 04:21:40;;;;;;;67.93;41.33;;;2.00;99.90;;;;;;5006098;28;20728;-48
2021/01/27 04:24:09;;;;;;;58.07;39.03;;;2.10;99.90;;;;;;4991112;28;20555;-48
2021/01/27 04:26:37;;;;;;;57.67;37.27;;;2.10;99.90;;;;;;5002459;28;20524;-48
2021/01/27 04:29:05;;;;;;;58.50;36.70;;;2.00;99.90;;;;;;5010687;28;20501;-48
2021/01/27 04:31:33;;;;;;;57.53;38.83;;;2.00;99.90;;;;;;5010248;28;20477;-48
2021/01/27 04:34:01;;;;;;;63.53;40.13;;;2.00;99.90;;;;;;5010489;28;20528;-48
2021/01/27 04:36:29;;;;;;;58.60;39.17;;;2.10;99.90;;;;;;5011142;28;20527;-48
2021/01/27 04:38:57;;;;;;;63.83;39.13;;;2.00;99.90;;;;;;5014177;28;20550;-48
2021/01/27 04:41:25;;;;;;;57.13;37.03;;;2.10;99.90;;;;;;5015441;28;21036;-48
2021/01/27 04:43:54;;;;;;;56.10;36.83;;;2.10;99.90;;;;;;5018241;28;20500;-48
2021/01/27 04:46:24;;;;;;;55.73;34.17;;;2.10;99.90;;;;;;5010452;28;20811;-48
2021/01/27 04:49:01;;;;;;;67.20;41.60;;;2.20;99.90;;;;;;5010734;28;20468;-48
2021/01/27 04:51:34;;;;;;;66.67;42.57;;;2.40;99.90;;;;;;5008205;28;20942;-48
2021/01/27 04:54:28;;;;;;;66.07;40.17;;;2.20;99.90;;;;;;5005310;28;20487;-48
2021/01/27 04:57:21;;;;;;;62.07;40.13;;;2.10;99.90;;;;;;4991210;28;20826;-48
2021/01/27 05:00:10;;;;;;;61.43;41.63;;;2.10;99.90;;;;;;4991238;28;20590;-48
2021/01/27 05:03:14;;;;;;;61.23;40.90;;;2.10;99.90;;;;;;4990513;28;20482;-48
2021/01/27 05:05:45;;;;;;;58.63;40.07;;;2.00;99.90;;;;;;4997332;28;20833;-49
2021/01/27 05:08:16;;;;;;;59.57;39.90;;;2.00;99.90;;;;;;5014467;28;20512;-48
2021/01/27 05:10:53;;;;;;;58.63;38.07;;;2.00;99.90;;;;;;5021157;28;20479;-48
2021/01/27 05:13:27;;;;;;;55.07;38.20;;;2.20;99.90;;;;;;5003145;28;20602;-48
2021/01/27 05:15:57;;;;;;;55.53;38.27;;;2.20;99.90;;;;;;5009450;28;20508;-48
2021/01/27 05:18:24;;;;;;;62.97;42.20;;;2.30;99.90;;;;;;5009595;28;20504;-48
2021/01/27 05:20:52;;;;;;;64.57;42.30;;;2.30;99.90;;;;;;5009658;28;20499;-48
2021/01/27 05:23:20;;;;;;;56.17;39.00;;;2.20;99.90;;;;;;4993117;28;20875;-48
2021/01/27 05:25:56;;;;;;;61.93;41.30;;;2.10;99.90;;;;;;5000705;28;20543;-48
2021/01/27 05:28:31;;;;;;;57.80;38.83;;;2.20;99.90;;;;;;5009262;28;20944;-48
2021/01/27 05:30:59;;;;;;;61.67;41.13;;;2.10;99.90;;;;;;5009515;28;20556;-48
2021/01/27 05:33:45;;;;;;;59.03;39.50;;;2.10;99.90;;;;;;5008945;28;20504;-48
2021/01/27 05:36:18;;;;;;;55.47;36.27;;;2.10;99.90;;;;;;5010105;28;20500;-48
2021/01/27 05:38:45;;;;;;;60.77;39.67;;;2.20;99.90;;;;;;5011354;28;20813;-48
2021/01/27 05:41:23;;;;;;;64.90;44.00;;;2.20;99.90;;;;;;5017654;28;20864;-48
2021/01/27 05:43:55;;;;;;;66.63;43.40;;;2.30;99.90;;;;;;4993734;28;20980;-48
2021/01/27 05:46:30;;;;;;;61.93;42.93;;;2.20;99.90;;;;;;5008990;28;20488;-48
2021/01/27 05:48:59;;;;;;;62.13;39.77;;;2.10;99.90;;;;;;5009157;28;20887;-48
2021/01/27 05:51:30;;;;;;;56.23;39.97;;;2.10;99.90;;;;;;5008832;28;20889;-48
2021/01/27 05:53:58;;;;;;;65.43;39.13;;;2.10;99.90;;;;;;5008374;28;20845;-49
2021/01/27 05:56:27;;;;;;;63.93;41.10;;;2.20;99.90;;;;;;5007490;28;20522;-48
2021/01/27 05:59:03;;;;;;;61.27;39.20;;;2.10;99.90;;;;;;5008881;28;20476;-48
2021/01/27 06:01:37;;;;;;;57.70;37.67;;;2.10;99.90;;;;;;5007899;28;20477;-48
2021/01/27 06:04:24;;;;;;;65.83;43.20;;;2.30;99.90;;;;;;5004517;28;20892;-48
2021/01/27 06:07:01;;;;;;;65.20;40.40;;;2.30;99.90;;;;;;5007864;28;20980;-49
2021/01/27 06:09:40;;;;;;;69.57;41.40;;;2.40;99.90;;;;;;5019169;28;20543;-48
2021/01/27 06:12:13;;;;;;;69.23;43.17;;;2.40;99.90;;;;;;5017556;28;20492;-48
2021/01/27 06:14:42;;;;;;;65.53;41.83;;;2.40;99.90;;;;;;5000803;28;20481;-49
2021/01/27 06:17:22;;;;;;;64.30;42.50;;;2.30;99.90;;;;;;5004492;28;20592;-48
2021/01/27 06:20:07;;;;;;;65.73;41.67;;;2.20;99.90;;;;;;5005206;28;20891;-48
2021/01/27 06:23:15;;;;;;;59.77;39.60;;;2.10;99.90;;;;;;5005867;28;20506;-48
2021/01/27 06:26:04;;;;;;;57.57;38.17;;;2.00;99.90;;;;;;4975533;28;20508;-48
2021/01/27 06:28:57;;;;;;;54.17;38.27;;;2.00;99.90;;;;;;5003090;28;20486;-48
2021/01/27 06:31:44;;;;;;;58.50;38.23;;;2.10;99.90;;;;;;5003290;28;20568;-48
2021/01/27 06:34:43;;;;;;;56.37;38.90;;;2.00;99.90;;;;;;5005886;28;20579;-48
2021/01/27 06:37:36;;;;;;;55.07;37.57;;;1.90;99.90;;;;;;5005286;28;20493;-48
2021/01/27 06:40:27;;;;;;;59.70;37.93;;;1.90;99.90;;;;;;4996796;28;20577;-48
2021/01/27 06:43:48;;;;;;;57.90;37.90;;;2.10;99.90;;;;;;5004064;28;21039;-48
2021/01/27 06:46:58;;;;;;;55.17;37.50;;;2.00;99.90;;;;;;4992502;28;21059;-48
2021/01/27 06:50:08;;;;;;;49.33;35.10;;;2.00;99.90;;;;;;5004320;28;20848;-48
2021/01/27 06:53:08;;;;;;;50.50;35.40;;;1.90;99.90;;;;;;5002918;28;20472;-48
2021/01/27 06:55:58;;;;;;;51.70;34.03;;;1.90;99.90;;;;;;5004471;28;20486;-48
2021/01/27 06:59:23;;;;;;;49.43;35.17;;;1.80;99.90;;;;;;4996349;28;20566;-48
2021/01/27 07:02:35;;;;;;;49.23;32.87;;;1.80;99.90;;;;;;5003640;28;20566;-48
2021/01/27 07:05:35;;;;;;;45.77;32.53;;;1.70;99.90;;;;;;5001311;28;20471;-48
2021/01/27 07:08:11;;;;;;;48.70;32.60;;;1.70;99.90;;;;;;5006581;28;20492;-48
2021/01/27 07:10:56;;;;;;;47.27;35.03;;;1.80;99.90;;;;;;5004931;28;20480;-48
2021/01/27 07:14:11;;;;;;;48.70;34.40;;;1.70;99.90;;;;;;5004462;28;20919;-48
2021/01/27 07:17:00;;;;;;;51.00;34.47;;;1.70;99.90;;;;;;5004907;28;20536;-48
2021/01/27 07:20:11;;;;;;;48.87;33.87;;;1.60;99.90;;;;;;4994385;28;20488;-48
2021/01/27 07:22:48;;;;;;;51.13;34.20;;;1.70;99.90;;;;;;5002673;28;20495;-48
2021/01/27 07:25:22;;;;;;;56.77;35.57;;;1.60;99.90;;;;;;5006405;28;20555;-49
2021/01/27 07:27:59;;;;;;;53.83;36.40;;;1.70;99.90;;;;;;4997525;28;21003;-48
2021/01/27 07:30:35;;;;;;;53.07;35.83;;;1.60;99.90;;;;;;4987648;28;20551;-48
2021/01/27 07:33:14;;;;;;;54.90;36.93;;;1.60;99.90;;;;;;4993326;28;20565;-48
2021/01/27 07:35:58;;;;;;;51.20;36.33;;;1.60;99.90;;;;;;4996677;28;20509;-48
2021/01/27 07:38:32;;;;;;;53.63;36.13;;;1.60;99.90;;;;;;5007313;28;20485;-48
2021/01/27 07:41:05;;;;;;;51.10;35.43;;;1.60;99.90;;;;;;5008171;28;20893;-48
2021/01/27 07:43:39;;;;;;;51.80;34.67;;;1.60;99.90;;;;;;5008296;28;21085;-48
2021/01/27 07:46:07;;;;;;;51.17;35.70;;;1.60;99.90;;;;;;5008391;28;20483;-48
2021/01/27 07:48:42;;;;;;;50.00;34.07;;;1.60;99.90;;;;;;5000483;28;20726;-48
2021/01/27 07:51:17;;;;;;;51.33;34.83;;;1.60;99.90;;;;;;4987649;28;20892;-48
2021/01/27 07:53:58;;;;;;;47.80;34.27;;;1.60;99.90;;;;;;4989471;28;21006;-48
2021/01/27 07:56:30;;;;;;;48.23;33.70;;;1.60;99.90;;;;;;4986897;28;21068;-49
2021/01/27 07:59:07;;;;;;;51.50;34.90;;;1.60;99.90;;;;;;4989463;28;20551;-48
2021/01/27 08:01:42;;;;;;;50.00;35.77;;;1.60;99.90;;;;;;4995687;28;20997;-48
2021/01/27 08:04:22;;;;;;;49.47;34.30;;;1.50;99.90;;;;;;5000446;28;20481;-48
2021/01/27 08:06:53;;;;;;;48.93;35.10;;;1.50;99.90;;;;;;5001949;28;20588;-48
2021/01/27 08:09:31;;;;;;;46.77;34.27;;;1.60;99.90;;;;;;4988263;28;20481;-48
2021/01/27 08:12:19;;;;;;;45.50;34.37;;;1.60;99.90;;;;;;4988358;28;20571;-48
2021/01/27 08:15:10;;;;;;;45.20;32.97;;;1.50;99.90;;;;;;4988361;28;20477;-48
2021/01/27 08:18:00;;;;;;;48.40;35.30;;;1.50;99.90;;;;;;4988381;28;21154;-48
2021/01/27 08:20:31;;;;;;;50.37;34.57;;;1.60;99.90;;;;;;4988263;28;20552;-48
2021/01/27 08:23:03;;;;;;;45.30;34.37;;;1.60;99.90;;;;;;4987841;28;20485;-48
2021/01/27 08:25:55;;;;;;;46.30;33.87;;;1.60;99.90;;;;;;4987262;28;20543;-48
2021/01/27 08:28:45;;;;;;;46.03;33.50;;;1.60;99.90;;;;;;4995823;28;21222;-47
2021/01/27 08:31:23;;;;;;;49.70;35.20;;;1.60;99.90;;;;;;4989277;28;20475;-48
2021/01/27 08:33:57;;;;;;;45.03;34.87;;;1.70;99.90;;;;;;4992203;28;20479;-49
2021/01/27 08:37:04;;;;;;;45.60;35.83;;;1.70;99.90;;;;;;4995463;28;20543;-48
2021/01/27 08:39:32;;;;;;;43.03;34.23;;;1.80;99.90;;;;;;4986740;28;20549;-48
2021/01/27 08:42:03;;;;;;;44.87;35.70;;;1.80;99.90;;;;;;4987744;28;20815;-48
2021/01/27 08:44:39;;;;;;;42.77;34.67;;;1.90;99.90;;;;;;4987621;28;20516;-48
2021/01/27 08:47:23;;;;;;;47.73;36.23;;;1.90;99.90;;;;;;4986269;28;20534;-48
2021/01/27 08:49:55;;;;;;;41.07;32.33;;;2.00;99.90;;;;;;4968004;28;20483;-48
2021/01/27 08:52:33;;;;;;;40.70;32.70;;;2.10;99.90;;;;;;4968063;28;20482;-48
2021/01/27 08:55:02;;;;;;;43.50;33.57;;;2.10;99.90;;;;;;4977564;28;20558;-49
2021/01/27 08:57:31;;;;;;;40.53;29.30;;;2.20;99.90;;;;;;5002367;28;21009;-48
2021/01/27 09:00:07;;;;;;;38.33;30.73;;;2.30;99.90;;;;;;4987149;28;20498;-48
2021/01/27 09:02:46;;;;;;;39.97;30.43;;;2.40;99.90;;;;;;4995073;28;20486;-48
2021/01/27 09:05:38;;;;;;;37.60;29.53;;;2.40;99.90;;;;;;5004074;28;20478;-48
2021/01/27 09:08:28;;;;;;;35.30;29.43;;;2.60;99.90;;;;;;4991494;28;20880;-48
2021/01/27 09:11:00;;;;;;;36.77;29.93;;;2.70;99.90;;;;;;4987264;28;20544;-48
2021/01/27 09:13:35;;;;;;;36.33;28.30;;;2.70;99.90;;;;;;4987103;28;20470;-48
2021/01/27 09:16:07;;;;;;;32.97;28.13;;;2.80;99.90;;;;;;4987159;28;20504;-48
2021/01/27 09:18:36;;;;;;;36.70;27.43;;;2.80;99.90;;;;;;4987338;28;21044;-48
2021/01/27 09:21:07;;;;;;;34.13;26.50;;;2.90;99.90;;;;;;4986910;28;20946;-48
2021/01/27 09:23:35;;;;;;;30.90;25.50;;;3.00;99.90;;;;;;4987022;28;20485;-48
2021/01/27 09:26:14;;;;;;;30.97;25.90;;;3.20;99.90;;;;;;4985727;28;20490;-48
2021/01/27 09:28:42;;;;;;;31.17;25.03;;;3.20;99.90;;;;;;4984809;28;20491;-48
2021/01/27 09:31:16;;;;;;;29.03;23.80;;;3.30;99.90;;;;;;4986830;28;20469;-48
2021/01/27 09:33:44;;;;;;;30.30;23.37;;;3.40;99.90;;;;;;4986286;28;20473;-49
2021/01/27 09:36:16;;;;;;;27.57;22.80;;;3.50;99.90;;;;;;4987006;28;20562;-48
2021/01/27 09:38:44;;;;;;;26.23;21.70;;;3.50;99.90;;;;;;4986839;28;20565;-48
2021/01/27 09:41:15;;;;;;;26.53;23.00;;;3.50;99.90;;;;;;4986591;28;20475;-48
2021/01/27 09:43:46;;;;;;;25.00;19.90;;;3.50;99.90;;;;;;4986321;28;20479;-49
2021/01/27 09:46:21;;;;;;;25.73;20.07;;;3.60;99.90;;;;;;4986165;28;20557;-49
2021/01/27 09:48:49;;;;;;;22.30;18.43;;;3.70;99.90;;;;;;4987117;28;20530;-48
2021/01/27 09:51:17;;;;;;;22.90;18.40;;;3.50;99.90;;;;;;4986300;28;21071;-48
2021/01/27 09:53:45;;;;;;;20.30;17.77;;;3.50;99.90;;;;;;4984159;28;20489;-48
2021/01/27 09:56:18;;;;;;;20.80;17.60;;;3.50;99.90;;;;;;4995091;28;20475;-48
2021/01/27 09:58:46;;;;;;;20.27;16.00;;;3.60;99.90;;;;;;5005773;28;21054;-48
2021/01/27 10:01:19;;;;;;;21.90;16.87;;;3.50;99.90;;;;;;5005645;28;21001;-48
2021/01/27 10:03:49;;;;;;;21.60;16.63;;;3.50;99.90;;;;;;5005783;28;20502;-48
2021/01/27 10:06:49;;;;;;;19.83;16.30;;;3.50;99.90;;;;;;5002188;28;20575;-48
2021/01/27 10:09:21;;;;;;;19.97;15.30;;;3.40;99.90;;;;;;4963874;28;20470;-49
2021/01/27 10:11:59;;;;;;;18.07;15.07;;;3.40;99.90;;;;;;4998141;28;20513;-48
2021/01/27 10:14:31;;;;;;;18.33;14.67;;;3.40;99.90;;;;;;5005229;28;20538;-48
2021/01/27 10:17:02;;;;;;;16.90;13.77;;;3.50;99.90;;;;;;5005962;28;20956;-48
2021/01/27 10:19:34;;;;;;;16.43;14.20;;;3.50;99.90;;;;;;5005490;28;20484;-48
2021/01/27 10:22:04;;;;;;;17.90;14.23;;;3.50;99.90;;;;;;5005570;28;20579;-48
2021/01/27 10:24:50;;;;;;;17.47;13.87;;;3.50;99.90;;;;;;5004804;28;20538;-48
2021/01/27 10:27:24;;;;;;;15.67;13.67;;;3.50;99.90;;;;;;5011576;28;20920;-48
2021/01/27 10:29:52;;;;;;;16.83;12.93;;;3.60;99.90;;;;;;5013249;28;20485;-48
2021/01/27 10:32:26;;;;;;;14.90;12.80;;;3.60;99.90;;;;;;5025297;28;20490;-48
2021/01/27 10:36:26;;;;;;;15.47;12.53;;;3.50;99.90;;;;;;4991740;28;20558;-48
2021/01/27 10:39:23;;;;;;;15.90;11.93;;;3.60;99.90;;;;;;5002082;28;20565;-48
2021/01/27 10:41:53;;;;;;;16.37;12.43;;;3.80;99.90;;;;;;5002264;28;21026;-48
2021/01/27 10:44:45;;;;;;;16.43;12.77;;;3.80;99.90;;;;;;5001963;28;21001;-48
2021/01/27 10:47:26;;;;;;;12.97;11.43;;;3.70;99.90;;;;;;5002311;28;20479;-48
2021/01/27 10:49:57;;;;;;;14.00;11.10;;;3.70;99.90;;;;;;4991915;28;20525;-48
2021/01/27 10:52:28;;;;;;;16.27;12.43;;;3.60;99.90;;;;;;4986936;28;20563;-48
2021/01/27 10:54:59;;;;;;;14.57;11.33;;;3.60;99.90;;;;;;4993882;28;20667;-48
2021/01/27 10:57:27;;;;;;;14.27;11.23;;;3.70;99.90;;;;;;4996663;28;20559;-48
2021/01/27 10:59:56;;;;;;;12.17;10.17;;;3.70;99.90;;;;;;4991471;28;20566;-48
2021/01/27 11:02:23;;;;;;;13.80;10.03;;;3.80;99.90;;;;;;4987653;28;20557;-48
2021/01/27 11:04:51;;;;;;;13.30;10.10;;;3.70;99.90;;;;;;4984401;28;20936;-48
2021/01/27 11:07:18;;;;;;;13.87;10.47;;;3.70;99.90;;;;;;4996622;28;21066;-48
2021/01/27 11:09:46;;;;;;;13.77;10.60;;;3.70;99.90;;;;;;5008216;28;20498;-48
2021/01/27 11:12:14;;;;;;;12.40;10.07;;;3.60;99.90;;;;;;5000561;28;20955;-48
2021/01/27 11:14:41;;;;;;;13.00;9.70;;;3.60;99.90;;;;;;4987919;28;20460;-48
2021/01/27 11:17:09;;;;;;;12.00;9.93;;;3.50;99.90;;;;;;4992895;28;20492;-48
2021/01/27 11:19:37;;;;;;;12.07;9.30;;;3.50;99.90;;;;;;5006034;28;20491;-48
2021/01/27 11:22:04;;;;;;;11.43;8.97;;;3.50;99.90;;;;;;5004457;28;20946;-47
2021/01/27 11:24:31;;;;;;;12.40;9.80;;;3.50;99.90;;;;;;5018020;28;20559;-50
2021/01/27 11:26:59;;;;;;;10.97;9.23;;;3.50;99.90;;;;;;4999004;28;20481;-50
2021/01/27 11:29:26;;;;;;;11.57;9.80;;;3.60;99.90;;;;;;4988025;28;20480;-48
2021/01/27 11:31:54;;;;;;;15.83;10.40;;;3.60;99.90;;;;;;4987928;28;20511;-49
2021/01/27 11:34:22;;;;;;;11.20;9.50;;;3.60;99.90;;;;;;4988023;28;20477;-48
2021/01/27 11:36:49;;;;;;;11.73;8.97;;;3.60;99.90;;;;;;4991904;28;20488;-48
2021/01/27 11:39:16;;;;;;;11.77;9.27;;;3.60;99.90;;;;;;5006334;28;20990;-48
2021/01/27 11:41:44;;;;;;;12.87;9.30;;;3.50;99.90;;;;;;5000715;28;20544;-48
2021/01/27 11:44:11;;;;;;;14.30;9.13;;;3.50;99.90;;;;;;5004316;28;20455;-48
2021/01/27 11:46:38;;;;;;;10.37;9.20;;;3.60;99.90;;;;;;5004571;28;20491;-48
2021/01/27 11:49:06;;;;;;;13.90;9.10;;;3.60;99.90;;;;;;5004301;28;20472;-48
2021/01/27 11:51:34;;;;;;;13.60;9.53;;;3.50;99.90;;;;;;4996386;28;20489;-48
2021/01/27 11:54:01;;;;;;;11.07;9.27;;;3.50;99.90;;;;;;5003843;28;20503;-48
2021/01/27 11:56:29;;;;;;;12.83;9.73;;;3.50;99.90;;;;;;5007684;28;20500;-48
2021/01/27 11:58:56;;;;;;;11.63;9.60;;;3.60;99.90;;;;;;5018274;28;20500;-48
2021/01/27 12:01:27;;;;;;;10.40;8.70;;;3.60;99.90;;;;;;5004553;28;20567;-48
2021/01/27 12:03:56;;;;;;;10.57;9.10;;;3.60;99.90;;;;;;5003584;28;20483;-48
2021/01/27 12:06:23;;;;;;;11.37;9.07;;;3.60;99.90;;;;;;5004162;28;20522;-48
2021/01/27 12:08:51;;;;;;;11.13;9.30;;;3.70;99.90;;;;;;5001764;28;20536;-48
2021/01/27 12:11:18;;;;;;;11.00;9.60;;;3.90;99.90;;;;;;5004639;28;20561;-48
2021/01/27 12:13:46;;;;;;;12.47;9.80;;;3.90;99.90;;;;;;5003997;28;20482;-48
2021/01/27 12:16:13;;;;;;;9.67;8.70;;;4.00;99.90;;;;;;5006978;28;20471;-49
2021/01/27 12:18:43;;;;;;;8.97;7.97;;;3.80;99.90;;;;;;5004905;28;20505;-48
2021/01/27 12:21:11;;;;;;;11.13;8.90;;;3.80;99.90;;;;;;5003498;28;20482;-49
2021/01/27 12:23:39;;;;;;;8.80;7.90;;;3.80;99.90;;;;;;5007312;28;20478;-48
2021/01/27 12:26:07;;;;;;;9.70;8.70;;;3.80;99.90;;;;;;5007453;28;20556;-48
2021/01/27 12:28:34;;;;;;;9.73;8.73;;;3.80;99.90;;;;;;5007390;28;21041;-48
2021/01/27 12:31:02;;;;;;;8.90;8.00;;;3.80;99.90;;;;;;5007300;28;20486;-48
2021/01/27 12:33:29;;;;;;;8.90;8.03;;;3.90;99.90;;;;;;5007350;28;20558;-48
2021/01/27 12:35:56;;;;;;;9.47;8.57;;;3.80;99.90;;;;;;5006875;28;20490;-48
2021/01/27 12:38:24;;;;;;;9.50;8.10;;;3.80;99.90;;;;;;5005002;28;20529;-48
2021/01/27 12:40:51;;;;;;;9.13;8.23;;;3.70;99.90;;;;;;5003206;28;20476;-48
2021/01/27 12:43:38;;;;;;;10.99;7.27;;;3.70;99.90;;;;;;4147876;28;10001998;-48
2021/01/27 12:46:06;;;;;;;9.05;7.22;;;3.60;99.90;;;;;;2404740;28;10002274;-48
2021/01/27 12:48:33;;;;;;;9.37;7.17;;;3.60;99.90;;;;;;4996968;28;20753;-48
2021/01/27 12:51:01;;;;;;;7.83;7.03;;;3.60;99.90;;;;;;4991641;28;21077;-47
2021/01/27 12:53:29;;;;;;;8.23;7.40;;;3.50;99.90;;;;;;4996814;28;20477;-48
2021/01/27 12:55:56;;;;;;;7.70;7.00;;;3.50;99.90;;;;;;5005983;28;20584;-48
2021/01/27 12:58:24;;;;;;;7.83;7.03;;;3.50;99.90;;;;;;4997420;28;20574;-48
2021/01/27 13:00:53;;;;;;;8.10;7.30;;;3.50;99.90;;;;;;4987364;28;20553;-49
2021/01/27 13:03:20;;;;;;;7.70;6.90;;;3.50;99.90;;;;;;4987494;28;20480;-48
2021/01/27 13:05:50;;;;;;;7.57;6.33;;;3.50;99.90;;;;;;5026855;28;20478;-50
2021/01/27 13:08:17;;;;;;;7.00;6.30;;;3.50;99.90;;;;;;5016664;28;20482;-48
2021/01/27 13:10:44;;;;;;;6.50;5.90;;;3.50;99.90;;;;;;5005677;28;20481;-48
2021/01/27 13:13:16;;;;;;;7.27;6.53;;;3.50;99.90;;;;;;5005691;28;20974;-48
2021/01/27 13:15:44;;;;;;;7.67;6.97;;;3.50;99.90;;;;;;5004178;28;20952;-48
2021/01/27 13:45:20;;;;;;;8.00;7.30;;;3.50;99.90;;;;;;4990835;28;22304;-48